createdAt,value
2023-03-11T00:03:41.341Z,97801.41
2023-03-11T00:08:41.324Z,97818.06
2023-03-11T00:13:40.916Z,97821.50
2023-03-11T00:18:39.980Z,97836.09
2023-03-11T00:23:39.117Z,97835.50
2023-03-11T00:28:38.209Z,97838.25
2023-03-11T00:33:37.014Z,97859.13
2023-03-11T00:38:36.576Z,97861.16
2023-03-11T00:43:35.545Z,97850.47
2023-03-11T00:48:35.562Z,97862.78
2023-03-11T00:53:34.577Z,97892.88
2023-03-11T00:58:33.418Z,97902.56
2023-03-11T01:03:32.340Z,97912.84
2023-03-11T01:08:31.872Z,97927.94
2023-03-11T01:13:31.262Z,97925.06
2023-03-11T01:18:30.226Z,97950.63
2023-03-11T01:23:29.158Z,97958.22
2023-03-11T01:28:28.115Z,97968.00
2023-03-11T01:33:27.044Z,97984.09
2023-03-11T01:38:25.803Z,97977.88
2023-03-11T01:43:48.863Z,97986.44
2023-03-11T01:48:54.332Z,98001.16
2023-03-11T01:53:55.170Z,98016.84
2023-03-11T01:58:56.070Z,98006.91
2023-03-11T02:03:55.511Z,98021.25
2023-03-11T02:08:55.318Z,98044.47
2023-03-11T02:13:59.172Z,98025.66
2023-03-11T02:18:59.405Z,98049.78
2023-03-11T02:24:08.107Z,98059.66
2023-03-11T02:29:10.027Z,98067.19
2023-03-11T02:34:34.136Z,98072.50
2023-03-11T02:39:41.978Z,98079.41
2023-03-11T02:44:47.446Z,98100.16
2023-03-11T02:49:46.392Z,98109.66
2023-03-11T02:54:46.113Z,98110.63
2023-03-11T02:59:45.005Z,98133.81
2023-03-11T03:04:46.024Z,98169.66
2023-03-11T03:09:45.363Z,98175.94
2023-03-11T03:14:44.471Z,98196.28
2023-03-11T03:19:43.296Z,98213.06
2023-03-11T03:24:43.896Z,98220.97
2023-03-11T03:29:42.931Z,98244.03
2023-03-11T03:34:41.903Z,98238.00
2023-03-11T03:39:41.450Z,98248.75
2023-03-11T03:44:40.713Z,98277.22
2023-03-11T03:49:40.713Z,98296.78
2023-03-11T03:54:40.087Z,98329.47
2023-03-11T03:59:39.766Z,98333.50
2023-03-11T04:04:38.732Z,98371.56
2023-03-11T04:09:41.908Z,98355.97
2023-03-11T04:14:42.205Z,98389.03
2023-03-11T04:19:41.470Z,98401.53
2023-03-11T04:24:42.183Z,98433.41
2023-03-11T04:29:41.223Z,98416.06
2023-03-11T04:34:40.766Z,98432.47
2023-03-11T04:39:40.057Z,98441.03
2023-03-11T04:44:39.145Z,98494.00
2023-03-11T04:49:38.445Z,98474.31
2023-03-11T04:54:37.357Z,98477.13
2023-03-11T04:59:36.439Z,98507.44
2023-03-11T05:04:36.019Z,98537.38
2023-03-11T05:09:35.469Z,98535.53
2023-03-11T05:14:34.822Z,98557.81
2023-03-11T05:19:36.559Z,98575.19
2023-03-11T05:24:41.729Z,98591.41
2023-03-11T05:29:40.652Z,98577.41
2023-03-11T05:34:42.759Z,98617.59
2023-03-11T05:39:41.797Z,98613.94
2023-03-11T05:44:42.126Z,98608.88
2023-03-11T05:49:41.519Z,98638.91
2023-03-11T05:54:40.591Z,98669.63
2023-03-11T05:59:39.505Z,98672.41
2023-03-11T06:04:38.590Z,98679.97
2023-03-11T06:09:39.429Z,98683.06
2023-03-11T06:14:42.867Z,98720.69
2023-03-11T06:19:41.710Z,98732.63
2023-03-11T06:24:42.078Z,98752.97
2023-03-11T06:29:41.832Z,98750.97
2023-03-11T06:34:41.963Z,98780.00
2023-03-11T06:39:41.015Z,98781.81
2023-03-11T06:44:41.760Z,98802.69
2023-03-11T06:49:42.654Z,98808.63
2023-03-11T06:54:41.922Z,98818.13
2023-03-11T06:59:41.049Z,98835.00
2023-03-11T07:04:42.975Z,98835.75
2023-03-11T07:09:41.915Z,98862.34
2023-03-11T07:14:43.170Z,98880.19
2023-03-11T07:19:42.007Z,98895.69
2023-03-11T07:24:40.778Z,98903.81
2023-03-11T07:29:39.505Z,98922.91
2023-03-11T07:34:38.289Z,98941.16
2023-03-11T07:39:37.036Z,98939.31
2023-03-11T07:44:36.070Z,98936.06
2023-03-11T07:49:35.800Z,98957.31
2023-03-11T07:54:34.726Z,98986.59
2023-03-11T07:59:33.467Z,98996.97
2023-03-11T08:04:32.229Z,98999.41
2023-03-11T08:09:31.176Z,99020.00
2023-03-11T08:14:32.498Z,99030.94
2023-03-11T08:19:31.723Z,99034.22
2023-03-11T08:24:30.736Z,99045.94
2023-03-11T08:29:29.697Z,99051.00
2023-03-11T08:34:28.570Z,99068.97
2023-03-11T08:39:27.591Z,99067.72
2023-03-11T08:44:26.568Z,99088.59
2023-03-11T08:49:25.911Z,99097.94
2023-03-11T08:54:24.718Z,99100.88
2023-03-11T08:59:23.604Z,99115.69
2023-03-11T09:04:22.578Z,99118.47
2023-03-11T09:09:21.301Z,99133.47
2023-03-11T09:14:20.068Z,99134.97
2023-03-11T09:19:19.031Z,99145.22
2023-03-11T09:24:18.184Z,99163.50
2023-03-11T09:29:17.069Z,99182.19
2023-03-11T09:34:16.309Z,99191.44
2023-03-11T09:39:15.299Z,99199.84
2023-03-11T09:44:39.276Z,99211.16
2023-03-11T09:49:53.767Z,99222.22
2023-03-11T09:54:54.980Z,99217.03
2023-03-11T09:59:55.057Z,99226.47
2023-03-11T10:05:17.010Z,99231.09
2023-03-11T10:10:17.696Z,99234.00
2023-03-11T10:15:34.781Z,99233.19
2023-03-11T10:20:56.110Z,99241.72
2023-03-11T10:26:03.021Z,99266.25
2023-03-11T10:31:29.557Z,99256.03
2023-03-11T10:36:57.352Z,99261.25
2023-03-11T10:42:00.565Z,99263.34
2023-03-11T10:46:59.475Z,99282.72
2023-03-11T10:51:58.769Z,99292.53
2023-03-11T10:57:03.546Z,99303.13
2023-03-11T11:02:26.117Z,99301.50
2023-03-11T11:07:31.680Z,99313.13
2023-03-11T11:12:30.515Z,99316.56
2023-03-11T11:17:32.574Z,99328.31
2023-03-11T11:22:32.269Z,99330.13
2023-03-11T11:27:32.862Z,99330.41
2023-03-11T11:32:31.806Z,99329.78
2023-03-11T11:37:33.860Z,99334.00
2023-03-11T11:42:32.818Z,99343.00
2023-03-11T11:47:36.929Z,99345.13
2023-03-11T11:52:46.241Z,99349.88
2023-03-11T11:57:45.158Z,99346.78
2023-03-11T12:03:16.129Z,99344.41
2023-03-11T12:08:35.907Z,99341.16
2023-03-11T12:13:40.450Z,99349.38
2023-03-11T12:18:47.615Z,99352.47
2023-03-11T12:24:06.710Z,99349.66
2023-03-11T12:29:16.929Z,99351.63
2023-03-11T12:34:20.358Z,99356.78
2023-03-11T12:39:29.828Z,99353.38
2023-03-11T12:44:30.831Z,99349.38
2023-03-11T12:49:32.791Z,99349.84
2023-03-11T12:54:35.744Z,99359.88
2023-03-11T12:59:53.964Z,99364.75
2023-03-11T13:05:11.468Z,99375.22
2023-03-11T13:10:21.551Z,99390.19
2023-03-11T13:15:20.395Z,99389.34
2023-03-11T13:20:44.442Z,99403.81
2023-03-11T13:25:52.094Z,99420.84
2023-03-11T13:30:55.432Z,99415.34
2023-03-11T13:36:10.380Z,99420.72
2023-03-11T13:41:16.858Z,99439.88
2023-03-11T13:46:41.131Z,99439.72
2023-03-11T13:51:47.899Z,99444.19
2023-03-11T13:56:57.872Z,99452.19
2023-03-11T14:02:01.994Z,99454.22
2023-03-11T14:07:11.758Z,99461.41
2023-03-11T14:12:12.158Z,99464.03
2023-03-11T14:17:18.245Z,99480.84
2023-03-11T14:22:17.098Z,99468.63
2023-03-11T14:27:17.211Z,99479.44
2023-03-11T14:32:27.668Z,99494.03
2023-03-11T14:37:36.262Z,99490.97
2023-03-11T14:42:39.587Z,99489.03
2023-03-11T14:47:51.597Z,99501.09
2023-03-11T14:53:13.931Z,99500.09
2023-03-11T14:58:31.139Z,99511.25
2023-03-11T15:03:38.197Z,99521.47
2023-03-11T15:08:50.371Z,99523.44
2023-03-11T15:13:51.267Z,99532.81
2023-03-11T15:18:50.227Z,99533.03
2023-03-11T15:23:59.571Z,99547.47
2023-03-11T15:29:01.777Z,99550.75
2023-03-11T15:34:19.223Z,99549.31
2023-03-11T15:39:28.948Z,99557.28
2023-03-11T15:44:40.839Z,99563.25
2023-03-11T15:49:39.914Z,99574.16
2023-03-11T15:54:38.920Z,99579.28
2023-03-11T15:59:38.348Z,99586.88
2023-03-11T16:04:37.501Z,99602.75
2023-03-11T16:09:36.621Z,99596.78
2023-03-11T16:14:35.525Z,99603.38
2023-03-11T16:19:34.330Z,99605.19
2023-03-11T16:24:33.190Z,99616.09
2023-03-11T16:29:33.697Z,99628.84
2023-03-11T16:34:32.890Z,99635.03
2023-03-11T16:39:31.937Z,99636.88
2023-03-11T16:44:30.727Z,99648.97
2023-03-11T16:49:29.579Z,99641.19
2023-03-11T16:54:28.286Z,99649.78
2023-03-11T16:59:27.291Z,99663.78
2023-03-11T17:04:26.080Z,99674.06
2023-03-11T17:09:24.917Z,99676.72
2023-03-11T17:14:24.441Z,99688.84
2023-03-11T17:19:24.284Z,99702.78
2023-03-11T17:24:23.220Z,99713.44
2023-03-11T17:29:22.138Z,99716.69
2023-03-11T17:34:21.205Z,99723.25
2023-03-11T17:39:20.345Z,99728.38
2023-03-11T17:44:19.209Z,99744.59
2023-03-11T17:49:18.044Z,99735.94
2023-03-11T17:54:17.406Z,99733.81
2023-03-11T17:59:17.950Z,99742.25
2023-03-11T18:04:16.961Z,99748.78
2023-03-11T18:09:17.070Z,99748.84
2023-03-11T18:14:15.944Z,99752.53
2023-03-11T18:19:14.814Z,99753.97
2023-03-11T18:24:13.682Z,99761.31
2023-03-11T18:29:12.734Z,99757.97
2023-03-11T18:34:15.047Z,99769.91
2023-03-11T18:39:13.897Z,99771.84
2023-03-11T18:44:12.770Z,99785.56
2023-03-11T18:49:13.020Z,99789.16
2023-03-11T18:54:11.727Z,99788.66
2023-03-11T18:59:12.205Z,99788.44
2023-03-11T19:04:11.143Z,99795.44
2023-03-11T19:09:10.998Z,99799.75
2023-03-11T19:14:09.884Z,99810.00
2023-03-11T19:19:10.813Z,99813.63
2023-03-11T19:24:10.831Z,99812.03
2023-03-11T19:29:09.547Z,99823.47
2023-03-11T19:34:08.350Z,99828.44
2023-03-11T19:39:07.933Z,99820.56
2023-03-11T19:44:06.768Z,99821.66
2023-03-11T19:49:05.538Z,99822.16
2023-03-11T19:54:04.672Z,99828.78
2023-03-11T19:59:04.261Z,99829.44
2023-03-11T20:04:03.650Z,99826.28
2023-03-11T20:09:02.700Z,99836.94
2023-03-11T20:14:01.630Z,99835.59
2023-03-11T20:19:00.373Z,99829.66
2023-03-11T20:23:59.734Z,99828.75
2023-03-11T20:28:59.016Z,99838.50
2023-03-11T20:33:58.680Z,99838.22
2023-03-11T20:38:57.504Z,99845.88
2023-03-11T20:43:57.356Z,99852.91
2023-03-11T20:48:56.403Z,99850.22
2023-03-11T20:53:55.583Z,99852.34
2023-03-11T20:58:56.241Z,99843.72
2023-03-11T21:03:57.923Z,99851.22
2023-03-11T21:08:59.312Z,99848.84
2023-03-11T21:13:58.415Z,99841.38
2023-03-11T21:18:57.365Z,99846.88
2023-03-11T21:23:56.271Z,99844.78
2023-03-11T21:28:56.018Z,99833.38
2023-03-11T21:33:56.857Z,99835.97
2023-03-11T21:38:55.905Z,99835.50
2023-03-11T21:43:56.233Z,99837.28
2023-03-11T21:48:55.537Z,99832.50
2023-03-11T21:53:54.958Z,99831.34
2023-03-11T21:58:54.180Z,99825.91
2023-03-11T22:03:53.592Z,99822.03
2023-03-11T22:08:53.196Z,99826.66
2023-03-11T22:13:54.447Z,99841.16
2023-03-11T22:18:53.458Z,99840.63
2023-03-11T22:23:52.557Z,99849.88
2023-03-11T22:28:51.689Z,99843.84
2023-03-11T22:33:50.926Z,99854.78
2023-03-11T22:38:50.003Z,99857.34
2023-03-11T22:43:48.934Z,99858.66
2023-03-11T22:48:48.513Z,99872.00
2023-03-11T22:53:47.513Z,99872.88
2023-03-11T22:58:46.743Z,99870.16
2023-03-11T23:03:46.024Z,99869.19
2023-03-11T23:08:45.824Z,99877.53
2023-03-11T23:13:45.160Z,99866.16
2023-03-11T23:18:45.486Z,99864.06
2023-03-11T23:23:44.470Z,99869.78
2023-03-11T23:28:43.787Z,99869.25
2023-03-11T23:33:43.726Z,99871.28
2023-03-11T23:38:43.029Z,99874.34
2023-03-11T23:43:42.501Z,99876.56
2023-03-11T23:48:41.509Z,99884.56
2023-03-11T23:53:40.491Z,99883.78
2023-03-11T23:58:39.533Z,99888.38
